Morgenster — PHMY — position and weather

sailwx.info

Track history (hours):
 
Tides and Currents Weather Stations Pressure Air Temp Water Temp Dewpoint Dewpoint Depression Visibility Wind Speed Wind Dir Waves Ship Positions

Morgenster

Last reported at 2017-May-28 16:30 UTC. Time now 2017-May-28 16:35 UTC.
Position N 47°36' W 002°51'.

Length 38 m; draft 2.4 m.

Type: Sailing vessel. MMSI: 245136000.

Date/timePositionNaut miles runAvg speedWind from/ knotsBaromVisibWave heightAir tempDewpointWater temp
2017-May-28 16:30N 47°36' W 002°51'0 0.0
2017-May-28 16:00N 47°36' W 002°51'0 0.0
2017-May-28 15:30N 47°36' W 002°51'0 0.0
2017-May-28 15:00N 47°36' W 002°51'0 0.0
2017-May-28 14:00N 47°36' W 002°51'0 0.0
2017-May-28 13:30N 47°36' W 002°51'0 0.0
2017-May-28 13:00N 47°36' W 002°51'0 0.0
2017-May-28 12:27N 47°36' W 002°51'0 0.0
2017-May-28 12:00N 47°36' W 002°51'0 0.0
2017-May-28 11:30N 47°36' W 002°51'0 0.0
2017-May-28 11:00N 47°36' W 002°51'0 0.0
2017-May-28 10:30N 47°36' W 002°51'0 0.0
2017-May-28 10:00N 47°36' W 002°51'0 0.0
2017-May-28 09:30N 47°36' W 002°51'0 0.0
2017-May-28 08:57N 47°36' W 002°51'0 0.0
2017-May-28 08:30N 47°36' W 002°51'0 0.0
2017-May-28 08:00N 47°36' W 002°51'0 0.0
2017-May-28 07:30N 47°36' W 002°51'0 0.0
2017-May-28 07:00N 47°36' W 002°51'0 0.1
2017-May-28 06:27N 47°36' W 002°51'0 0.1
2017-May-28 06:00N 47°36' W 002°51'0 0.0
2017-May-28 05:30N 47°36' W 002°51'0 0.1
2017-May-28 05:00N 47°36' W 002°51'0 0.0
2017-May-28 04:27N 47°36' W 002°51'0 0.0
2017-May-28 04:00N 47°36' W 002°51'0 0.0
2017-May-28 03:30N 47°36' W 002°51'0 0.1
2017-May-28 03:00N 47°36' W 002°51'0 0.0
2017-May-28 02:30N 47°36' W 002°51'0 0.0
2017-May-28 02:00N 47°36' W 002°51'0 0.0
2017-May-28 01:30N 47°36' W 002°51'0 0.0
2017-May-28 01:00N 47°36' W 002°51'0 0.0
2017-May-28 00:30N 47°36' W 002°51'0 0.0
2017-May-28 00:00N 47°36' W 002°51'0 0.0
2017-May-27 23:30N 47°36' W 002°51'0 0.0
2017-May-27 23:00N 47°36' W 002°51'0 0.0
2017-May-27 22:30N 47°36' W 002°51'0 0.0
2017-May-27 22:00N 47°36' W 002°51'0 0.0
2017-May-27 21:30N 47°36' W 002°51'0 0.0
2017-May-27 21:00N 47°36' W 002°51'0 0.0
2017-May-27 20:30N 47°36' W 002°51'0 0.0
2017-May-27 20:00N 47°36' W 002°51'0 0.0
2017-May-27 19:30N 47°36' W 002°51'0 0.1
2017-May-27 19:00N 47°36' W 002°51'0 0.1
2017-May-27 18:30N 47°36' W 002°51'0 0.1
2017-May-27 18:00N 47°36' W 002°51'0 0.1
2017-May-27 17:30N 47°36' W 002°51'0 0.1
2017-May-27 17:00N 47°36' W 002°51'0 0.0
2017-May-27 16:30N 47°36' W 002°51'0 0.0
2017-May-27 15:57N 47°36' W 002°51'0 0.0
2017-May-27 15:27N 47°36' W 002°51'0 0.0
2017-May-27 14:57N 47°36' W 002°51'0 1.0
2017-May-27 14:30N 47°36' W 002°51'5 5.0
2017-May-27 13:30N 47°32' W 002°55'1 2.9
2017-May-27 13:00N 47°31' W 002°56'1 1.3
2017-May-27 12:30N 47°31' W 002°57'1 1.4
2017-May-27 12:00N 47°31' W 002°58'1 1.5
2017-May-27 11:30N 47°31' W 002°59'1 2.4
2017-May-27 11:00N 47°31' W 003°01'0 1.0
2017-May-27 10:30N 47°31' W 002°60'1 2.8
2017-May-27 10:00N 47°31' W 002°58'2 3.4
2017-May-27 09:30N 47°32' W 002°56'4 7.9
2017-May-27 09:00N 47°35' W 002°52'1 2.7
2017-May-27 08:28N 47°36' W 002°51'0 0.0
2017-May-27 07:58N 47°36' W 002°51'0 0.0
2017-May-27 07:28N 47°36' W 002°51'0 0.1
2017-May-27 06:58N 47°36' W 002°51'0 0.0
2017-May-27 06:28N 47°36' W 002°51'0 0.0
2017-May-27 05:58N 47°36' W 002°51'0 0.0
2017-May-27 05:28N 47°36' W 002°51'0 0.0
2017-May-27 04:58N 47°36' W 002°51'0 0.0
2017-May-27 04:28N 47°36' W 002°51'0 0.0
2017-May-27 03:58N 47°36' W 002°51'0 0.0
2017-May-27 03:28N 47°36' W 002°51'0 0.0
2017-May-27 02:58N 47°36' W 002°51'0 0.0
2017-May-27 02:28N 47°36' W 002°51'0 0.0
2017-May-27 01:58N 47°36' W 002°51'0 0.0
2017-May-27 01:28N 47°36' W 002°51'0 0.0
2017-May-27 00:58N 47°36' W 002°51'0 0.1
2017-May-27 00:28N 47°36' W 002°51'0 0.0
2017-May-26 23:58N 47°36' W 002°51'0 0.0
2017-May-26 23:25N 47°36' W 002°51'0 0.0
2017-May-26 22:55N 47°36' W 002°51'0 0.0
2017-May-26 22:28N 47°36' W 002°51'0 0.0
2017-May-26 22:00N 47°36' W 002°51'0 0.0
2017-May-26 21:28N 47°36' W 002°51'0 0.0
2017-May-26 20:58N 47°36' W 002°51'0 0.0
2017-May-26 20:28N 47°36' W 002°51'0 0.0
2017-May-26 19:58N 47°36' W 002°51'0 0.0
2017-May-26 19:28N 47°36' W 002°51'0 0.0
2017-May-26 18:58N 47°36' W 002°51'0 0.0
2017-May-26 18:28N 47°36' W 002°51'0 0.0
2017-May-26 17:58N 47°36' W 002°51'0 0.0
2017-May-26 17:28N 47°36' W 002°51'0 0.1
2017-May-26 16:58N 47°36' W 002°51'0 0.0
2017-May-26 16:28N 47°36' W 002°51'0 0.1
2017-May-26 15:58N 47°36' W 002°51'0 0.0
2017-May-26 15:28N 47°36' W 002°51'0 0.0
2017-May-26 14:58N 47°36' W 002°51'0 0.4
2017-May-26 14:30N 47°36' W 002°51'5 4.9
2017-May-26 13:31N 47°32' W 002°55'2 3.2
2017-May-26 13:01N 47°31' W 002°55'1 3.0
2017-May-26 12:31N 47°29' W 002°55'2 3.1
2017-May-26 12:01N 47°28' W 002°56'1 2.5
2017-May-26 11:31N 47°29' W 002°56'2 4.2
2017-May-26 11:01N 47°31' W 002°55'2 4.8
2017-May-26 10:31N 47°34' W 002°55'3 5.2
2017-May-26 10:00N 47°35' W 002°52'2 3.1
2017-May-26 09:31N 47°36' W 002°51'0 0.0
2017-May-26 08:58N 47°36' W 002°51'0 0.0
2017-May-26 08:28N 47°36' W 002°51'0 0.0
2017-May-26 07:58N 47°36' W 002°51'0 0.0
2017-May-26 07:28N 47°36' W 002°51'0 0.0
2017-May-26 06:58N 47°36' W 002°51'0 0.0
2017-May-26 06:28N 47°36' W 002°51'0 0.0
2017-May-26 05:58N 47°36' W 002°51'0 0.0
2017-May-26 05:28N 47°36' W 002°51'0 0.0
2017-May-26 04:58N 47°36' W 002°51'0 0.0
2017-May-26 04:30N 47°36' W 002°51'0 0.0
2017-May-26 03:58N 47°36' W 002°51'0 0.0
2017-May-26 03:28N 47°36' W 002°51'0 0.0
2017-May-26 02:58N 47°36' W 002°51'0 0.0
2017-May-26 02:28N 47°36' W 002°51'0 0.0
2017-May-26 01:58N 47°36' W 002°51'0 0.0
2017-May-26 01:28N 47°36' W 002°51'0 0.0
2017-May-26 00:58N 47°36' W 002°51'0 0.0
2017-May-26 00:28N 47°36' W 002°51'0 0.1
2017-May-25 23:58N 47°36' W 002°51'0 0.0
2017-May-25 23:28N 47°36' W 002°51'0 0.0
2017-May-25 22:58N 47°36' W 002°51'0 0.0
2017-May-25 22:28N 47°36' W 002°51'0 0.0
2017-May-25 21:58N 47°36' W 002°51'0 0.0
2017-May-25 21:28N 47°36' W 002°51'0 0.0
2017-May-25 20:58N 47°36' W 002°51'0 0.0
2017-May-25 20:28N 47°36' W 002°51'0 0.0
2017-May-25 20:00N 47°36' W 002°51'0 0.0
2017-May-25 19:30N 47°36' W 002°51'0 0.0
2017-May-25 19:00N 47°36' W 002°51'0 0.0
2017-May-25 18:28N 47°36' W 002°51'0 0.0
2017-May-25 17:58N 47°36' W 002°51'0 0.0
2017-May-25 17:28N 47°36' W 002°51'0 0.0
2017-May-25 16:58N 47°36' W 002°51'0 0.0
2017-May-25 16:28N 47°36' W 002°51'0 0.0
2017-May-25 15:58N 47°36' W 002°51'0 0.0
2017-May-25 15:28N 47°36' W 002°51'0 0.0
2017-May-25 14:58N 47°36' W 002°51'1 1.5
2017-May-25 14:30N 47°36' W 002°51'5 5.4
2017-May-25 13:30N 47°31' W 002°55'3 5.2
2017-May-25 13:00N 47°29' W 002°56'3 6.4
2017-May-25 12:30N 47°26' W 002°57'2 3.6
2017-May-25 12:00N 47°24' W 002°57'2 4.3
2017-May-25 11:30N 47°25' W 002°55'2 4.5
2017-May-25 11:01N 47°27' W 002°54'3 6.5
2017-May-25 10:30N 47°31' W 002°54'3 6.7
2017-May-25 10:00N 47°34' W 002°54'3 6.5
2017-May-25 09:31N 47°36' W 002°51'0 0.5
2017-May-25 09:00N 47°36' W 002°51'0 0.0
2017-May-25 08:30N 47°36' W 002°51'0 0.0
2017-May-25 08:00N 47°36' W 002°51'0 0.0
2017-May-25 07:30N 47°36' W 002°51'0 0.0
2017-May-25 07:00N 47°36' W 002°51'0 0.0
2017-May-25 06:30N 47°36' W 002°51'0 0.0
2017-May-25 06:00N 47°36' W 002°51'0 0.0
2017-May-25 05:30N 47°36' W 002°51'0 0.0
2017-May-25 05:00N 47°36' W 002°51'0 0.0
2017-May-25 04:30N 47°36' W 002°51'0 0.0
2017-May-25 04:00N 47°36' W 002°51'0 0.0
2017-May-25 03:30N 47°36' W 002°51'0 0.0
2017-May-25 03:00N 47°36' W 002°51'0 0.0
2017-May-25 02:30N 47°36' W 002°51'0 0.0
2017-May-25 02:00N 47°36' W 002°51'0 0.0
2017-May-25 01:30N 47°36' W 002°51'0 0.0
2017-May-25 01:00N 47°36' W 002°51'0 0.0
2017-May-25 00:30N 47°36' W 002°51'0 0.1
2017-May-25 00:00N 47°36' W 002°51'0 0.1
2017-May-24 23:30N 47°36' W 002°51'0 0.0
2017-May-24 23:00N 47°36' W 002°51'0 0.0
2017-May-24 22:30N 47°36' W 002°51'0 0.0
2017-May-24 22:00N 47°36' W 002°51'0 0.0
2017-May-24 21:30N 47°36' W 002°51'0 0.0
2017-May-24 21:00N 47°36' W 002°51'0 0.0
2017-May-24 20:30N 47°36' W 002°51'0 0.0
2017-May-24 20:00N 47°36' W 002°51'0 0.0
2017-May-24 19:30N 47°36' W 002°51'0 0.0
2017-May-24 19:00N 47°36' W 002°51'0 0.0
2017-May-24 18:30N 47°36' W 002°51'0 0.0
2017-May-24 18:00N 47°36' W 002°51'0 0.0
2017-May-24 17:30N 47°36' W 002°51'0 0.0
2017-May-24 17:00N 47°36' W 002°51'0 0.0
2017-May-24 16:30N 47°36' W 002°51'0 0.0
2017-May-24 16:00N 47°36' W 002°51'0 0.1
2017-May-24 15:30N 47°36' W 002°51'0 0.0
2017-May-24 15:00N 47°36' W 002°51'2 3.5
2017-May-24 14:30N 47°35' W 002°52'4 3.8
2017-May-24 13:30N 47°32' W 002°55'2 3.2
2017-May-24 13:00N 47°30' W 002°55'0 0.9
2017-May-24 12:30N 47°30' W 002°55'0 0.6
2017-May-24 12:00N 47°30' W 002°55'1 3.0
2017-May-24 11:31N 47°31' W 002°54'2 3.7
2017-May-24 11:00N 47°33' W 002°55'1 2.3
2017-May-24 10:30N 47°34' W 002°55'2 3.9
2017-May-24 10:00N 47°35' W 002°53'2 3.7
2017-May-24 09:30N 47°36' W 002°51'0 0.4
2017-May-24 08:58N 47°36' W 002°51'0 0.0
2017-May-24 08:28N 47°36' W 002°51'0 0.0
2017-May-24 07:58N 47°36' W 002°51'0 0.0
2017-May-24 07:28N 47°36' W 002°51'0 0.0
2017-May-24 06:58N 47°36' W 002°51'0 0.0
2017-May-24 06:28N 47°36' W 002°51'0 0.0
2017-May-24 05:58N 47°36' W 002°51'0 0.0
2017-May-24 05:28N 47°36' W 002°51'0 0.0
2017-May-24 04:58N 47°36' W 002°51'0 0.0
2017-May-24 04:28N 47°36' W 002°51'0 0.0
2017-May-24 03:58N 47°36' W 002°51'0 0.0
2017-May-24 03:28N 47°36' W 002°51'0 0.0
2017-May-24 02:58N 47°36' W 002°51'0 0.0
2017-May-24 02:28N 47°36' W 002°51'0 0.0
2017-May-24 01:58N 47°36' W 002°51'0 0.0
2017-May-24 01:28N 47°36' W 002°51'0 0.0
2017-May-24 00:58N 47°36' W 002°51'0 0.0
2017-May-24 00:28N 47°36' W 002°51'0 0.1
2017-May-23 23:58N 47°36' W 002°51'0 0.0
2017-May-23 23:28N 47°36' W 002°51'0 0.0
2017-May-23 22:58N 47°36' W 002°51'0 0.1
2017-May-23 22:28N 47°36' W 002°51'0 0.0
2017-May-23 21:58N 47°36' W 002°51'0 0.0
2017-May-23 21:28N 47°36' W 002°51'0 0.0
2017-May-23 20:58N 47°36' W 002°51'0 0.0
2017-May-23 20:28N 47°36' W 002°51'0 0.0
2017-May-23 19:58N 47°36' W 002°51'0 0.0
2017-May-23 19:28N 47°36' W 002°51'0 0.0
2017-May-23 18:58N 47°36' W 002°51'0 0.0
2017-May-23 18:28N 47°36' W 002°51'0 0.0
2017-May-23 17:58N 47°36' W 002°51'0 0.0
2017-May-23 17:28N 47°36' W 002°51'0 0.0
2017-May-23 16:58N 47°36' W 002°51'0 0.1
2017-May-23 16:28N 47°36' W 002°51'0 0.0
2017-May-23 15:58N 47°36' W 002°51'0 0.1
2017-May-23 15:28N 47°36' W 002°51'0 0.0
2017-May-23 14:58N 47°36' W 002°51'0 0.0
2017-May-23 13:58N 47°36' W 002°51'0 0.0
2017-May-23 13:30N 47°36' W 002°51'1 1.4
2017-May-23 13:00N 47°36' W 002°50'1 2.0
2017-May-23 12:30N 47°37' W 002°49'2 4.1
2017-May-23 12:00N 47°36' W 002°51'3 5.6
2017-May-23 11:31N 47°34' W 002°54'3 6.9
2017-May-23 11:00N 47°31' W 002°56'2 4.6
2017-May-23 10:30N 47°28' W 002°56'1 1.9
2017-May-23 10:00N 47°28' W 002°56'2 4.7
2017-May-23 09:30N 47°30' W 002°55'2 3.7
2017-May-23 09:00N 47°32' W 002°55'2 3.9
2017-May-23 08:30N 47°34' W 002°55'4 7.0
2017-May-23 08:00N 47°36' W 002°51'0 0.8
2017-May-23 07:28N 47°36' W 002°51'0 0.0
2017-May-23 06:58N 47°36' W 002°51'0 0.0
2017-May-23 06:28N 47°36' W 002°51'0 0.0
2017-May-23 05:58N 47°36' W 002°51'0 0.0
2017-May-23 05:28N 47°36' W 002°51'0 0.0
2017-May-23 04:58N 47°36' W 002°51'0 0.0
2017-May-23 04:28N 47°36' W 002°51'0 0.0
2017-May-23 03:58N 47°36' W 002°51'0 0.0
2017-May-23 03:28N 47°36' W 002°51'0 0.0
2017-May-23 02:58N 47°36' W 002°51'0 0.0
2017-May-23 02:28N 47°36' W 002°51'0 0.0
2017-May-23 01:58N 47°36' W 002°51'0 0.0
2017-May-23 01:28N 47°36' W 002°51'0 0.0
2017-May-23 00:58N 47°36' W 002°51'0 0.0
2017-May-23 00:28N 47°36' W 002°51'0 0.0
2017-May-22 23:58N 47°36' W 002°51'0 0.0
2017-May-22 23:28N 47°36' W 002°51'0 0.0
2017-May-22 22:55N 47°36' W 002°51'0 0.0
2017-May-22 22:28N 47°36' W 002°51'0 0.0
2017-May-22 21:58N 47°36' W 002°51'0 0.1
2017-May-22 21:28N 47°36' W 002°51'0 0.0
2017-May-22 20:58N 47°36' W 002°51'0 0.0
2017-May-22 20:28N 47°36' W 002°51'0 0.0
2017-May-22 19:58N 47°36' W 002°51'0 0.0
2017-May-22 19:28N 47°36' W 002°51'0 0.0
2017-May-22 18:58N 47°36' W 002°51'0 0.0
2017-May-22 18:28N 47°36' W 002°51'0 0.0
2017-May-22 17:58N 47°36' W 002°51'0 0.0
2017-May-22 17:28N 47°36' W 002°51'0 0.0
2017-May-22 16:58N 47°36' W 002°51'0 0.0
2017-May-22 16:28N 47°36' W 002°51'0 0.0
2017-May-22 15:58N 47°36' W 002°51'0 0.0
2017-May-22 15:28N 47°36' W 002°51'0 0.0
2017-May-22 14:58N 47°36' W 002°51'0 0.0
2017-May-22 13:58N 47°36' W 002°51'0 0.0
2017-May-22 13:30N 47°36' W 002°51'2 4.0
2017-May-22 13:00N 47°35' W 002°53'3 5.1
2017-May-22 12:30N 47°33' W 002°55'2 3.5
2017-May-22 12:00N 47°31' W 002°56'1 1.6
2017-May-22 11:30N 47°31' W 002°58'1 2.2
2017-May-22 11:00N 47°31' W 002°56'2 3.1
2017-May-22 10:30N 47°33' W 002°55'2 4.8
2017-May-22 10:00N 47°35' W 002°53'2 4.4
2017-May-22 09:30N 47°36' W 002°51'0 0.1
2017-May-22 08:58N 47°36' W 002°51'0 0.0
2017-May-22 08:28N 47°36' W 002°51'0 0.0
2017-May-22 07:58N 47°36' W 002°51'0 0.0
2017-May-22 07:28N 47°36' W 002°51'0 0.0
2017-May-22 06:58N 47°36' W 002°51'0 0.0
2017-May-22 06:28N 47°36' W 002°51'0 0.0
2017-May-22 05:58N 47°36' W 002°51'0 0.0
2017-May-22 05:28N 47°36' W 002°51'0 0.0
2017-May-22 04:58N 47°36' W 002°51'0 0.0
2017-May-22 04:28N 47°36' W 002°51'0 0.0
2017-May-22 03:58N 47°36' W 002°51'0 0.0
2017-May-22 03:28N 47°36' W 002°51'0 0.0
2017-May-22 02:58N 47°36' W 002°51'0 0.0
2017-May-22 02:28N 47°36' W 002°51'0 0.0
2017-May-22 02:00N 47°36' W 002°51'0 0.0
2017-May-22 01:28N 47°36' W 002°51'0 0.0
2017-May-22 00:58N 47°36' W 002°51'0 0.0
2017-May-22 00:28N 47°36' W 002°51'0 0.0
2017-May-21 23:58N 47°36' W 002°51'0 0.0
2017-May-21 23:28N 47°36' W 002°51'0 0.0
2017-May-21 22:58N 47°36' W 002°51'0 0.0
2017-May-21 22:28N 47°36' W 002°51'0 0.1
2017-May-21 21:58N 47°36' W 002°51'0 0.0
2017-May-21 21:28N 47°36' W 002°51'0 0.0
2017-May-21 20:58N 47°36' W 002°51'0 0.0
2017-May-21 20:28N 47°36' W 002°51'0 0.0
2017-May-21 19:58N 47°36' W 002°51'0 0.0
2017-May-21 19:28N 47°36' W 002°51'0 0.0
2017-May-21 18:58N 47°36' W 002°51'0 0.0
2017-May-21 18:28N 47°36' W 002°51'0 0.0
2017-May-21 17:58N 47°36' W 002°51'0 0.0
2017-May-21 17:28N 47°36' W 002°51'0 0.0
2017-May-21 17:00N 47°36' W 002°51'0 0.0
2017-May-21 16:28N 47°36' W 002°51'0 0.0
2017-May-21 15:58N 47°36' W 002°51'0 0.0
2017-May-21 15:28N 47°36' W 002°51'0 0.0
2017-May-21 14:58N 47°36' W 002°51'0 0.0
2017-May-21 14:28N 47°36' W 002°51'0 0.0
2017-May-21 13:28N 47°36' W 002°51'0 0.0
2017-May-21 13:00N 47°36' W 002°51'2 4.8
2017-May-21 12:30N 47°35' W 002°53'3 5.8
2017-May-21 12:00N 47°32' W 002°55'3 5.8
2017-May-21 11:30N 47°30' W 002°58'2 4.8
2017-May-21 11:00N 47°28' W 003°00'3 5.2
2017-May-21 10:30N 47°26' W 003°03'3 5.6
2017-May-21 10:00N 47°24' W 003°06'3 5.7
2017-May-21 09:30N 47°22' W 003°08'1 1.4
2017-May-21 08:54N 47°21' W 003°09'0 0.0
2017-May-21 08:30N 47°21' W 003°09'0 0.0
2017-May-21 07:42N 47°21' W 003°09'0 0.0
2017-May-21 07:30N 47°21' W 003°09'0 0.0
2017-May-21 06:48N 47°21' W 003°09'0 0.0
2017-May-21 06:27N 47°21' W 003°09'0 0.0
2017-May-21 06:00N 47°21' W 003°09'0 0.0
2017-May-21 05:24N 47°21' W 003°09'0 0.0
2017-May-21 05:00N 47°21' W 003°09'0 0.0
2017-May-21 04:30N 47°21' W 003°09'0 0.0
2017-May-21 04:00N 47°21' W 003°09'0 0.0
2017-May-21 03:30N 47°21' W 003°09'0 0.0
2017-May-21 02:54N 47°21' W 003°09'0 0.0
2017-May-21 02:30N 47°21' W 003°09'0 0.0
2017-May-21 02:00N 47°21' W 003°09'0 0.0
2017-May-21 01:30N 47°21' W 003°09'0 0.0
2017-May-21 01:00N 47°21' W 003°09'0 0.0
2017-May-21 00:27N 47°21' W 003°09'0 0.0
2017-May-21 00:00N 47°21' W 003°09'0 0.0
2017-May-20 23:30N 47°21' W 003°09'0 0.0
2017-May-20 22:57N 47°21' W 003°09'0 0.0
2017-May-20 22:24N 47°21' W 003°09'0 0.0
2017-May-20 21:48N 47°21' W 003°09'0 0.0
2017-May-20 21:30N 47°21' W 003°09'0 0.0
2017-May-20 21:00N 47°21' W 003°09'0 0.0
2017-May-20 20:27N 47°21' W 003°09'0 0.0
2017-May-20 18:42N 47°21' W 003°09'0 0.0
2017-May-20 18:09N 47°21' W 003°09'0 0.0
2017-May-20 18:00N 47°21' W 003°09'0 0.0
2017-May-20 17:30N 47°21' W 003°09'0 0.0
2017-May-20 17:00N 47°21' W 003°09'0 0.0
2017-May-20 16:30N 47°21' W 003°09'0 0.0
2017-May-20 16:00N 47°21' W 003°09'0 0.2
2017-May-20 15:31N 47°21' W 003°09'0 0.9
2017-May-20 15:00N 47°22' W 003°09'5 3.7
2017-May-20 13:35N 47°25' W 003°16'1 7.1
2017-May-20 13:27N 47°25' W 003°17'3 6.9
2017-May-20 13:01N 47°27' W 003°20'4 7.3
2017-May-20 12:31N 47°29' W 003°25'3 5.7
2017-May-20 12:00N 47°30' W 003°29'3 5.6
2017-May-20 11:30N 47°32' W 003°32'3 6.3
2017-May-20 11:01N 47°34' W 003°35'4 7.2
2017-May-20 10:29N 47°37' W 003°39'3 6.5
2017-May-20 10:00N 47°39' W 003°43'24 0.9
2017-May-19 06:38N 47°42' W 004°18'  
Track history (hours):
 
Tides and Currents Weather Stations Pressure Air Temp Water Temp Dewpoint Dewpoint Depression Visibility Wind Speed Wind Dir Waves Ship Positions

Morgenster

Last reported at 2017-May-28 16:30 UTC. Time now 2017-May-28 16:35 UTC.
Position N 47°36' W 002°51'.

Length 38 m; draft 2.4 m.

Type: Sailing vessel. MMSI: 245136000.

Date/timePositionNaut miles runAvg speedWind from/ knotsBaromVisibWave heightAir tempDewpointWater temp
2017-May-28 16:30N 47°36' W 002°51'0 0.0
2017-May-28 16:00N 47°36' W 002°51'0 0.0
2017-May-28 15:30N 47°36' W 002°51'0 0.0
2017-May-28 15:00N 47°36' W 002°51'0 0.0
2017-May-28 14:00N 47°36' W 002°51'0 0.0
2017-May-28 13:30N 47°36' W 002°51'0 0.0
2017-May-28 13:00N 47°36' W 002°51'0 0.0
2017-May-28 12:27N 47°36' W 002°51'0 0.0
2017-May-28 12:00N 47°36' W 002°51'0 0.0
2017-May-28 11:30N 47°36' W 002°51'0 0.0
2017-May-28 11:00N 47°36' W 002°51'0 0.0
2017-May-28 10:30N 47°36' W 002°51'0 0.0
2017-May-28 10:00N 47°36' W 002°51'0 0.0
2017-May-28 09:30N 47°36' W 002°51'0 0.0
2017-May-28 08:57N 47°36' W 002°51'0 0.0
2017-May-28 08:30N 47°36' W 002°51'0 0.0
2017-May-28 08:00N 47°36' W 002°51'0 0.0
2017-May-28 07:30N 47°36' W 002°51'0 0.0
2017-May-28 07:00N 47°36' W 002°51'0 0.1
2017-May-28 06:27N 47°36' W 002°51'0 0.1
2017-May-28 06:00N 47°36' W 002°51'0 0.0
2017-May-28 05:30N 47°36' W 002°51'0 0.1
2017-May-28 05:00N 47°36' W 002°51'0 0.0
2017-May-28 04:27N 47°36' W 002°51'0 0.0
2017-May-28 04:00N 47°36' W 002°51'0 0.0
2017-May-28 03:30N 47°36' W 002°51'0 0.1
2017-May-28 03:00N 47°36' W 002°51'0 0.0
2017-May-28 02:30N 47°36' W 002°51'0 0.0
2017-May-28 02:00N 47°36' W 002°51'0 0.0
2017-May-28 01:30N 47°36' W 002°51'0 0.0
2017-May-28 01:00N 47°36' W 002°51'0 0.0
2017-May-28 00:30N 47°36' W 002°51'0 0.0
2017-May-28 00:00N 47°36' W 002°51'0 0.0
2017-May-27 23:30N 47°36' W 002°51'0 0.0
2017-May-27 23:00N 47°36' W 002°51'0 0.0
2017-May-27 22:30N 47°36' W 002°51'0 0.0
2017-May-27 22:00N 47°36' W 002°51'0 0.0
2017-May-27 21:30N 47°36' W 002°51'0 0.0
2017-May-27 21:00N 47°36' W 002°51'0 0.0
2017-May-27 20:30N 47°36' W 002°51'0 0.0
2017-May-27 20:00N 47°36' W 002°51'0 0.0
2017-May-27 19:30N 47°36' W 002°51'0 0.1
2017-May-27 19:00N 47°36' W 002°51'0 0.1
2017-May-27 18:30N 47°36' W 002°51'0 0.1
2017-May-27 18:00N 47°36' W 002°51'0 0.1
2017-May-27 17:30N 47°36' W 002°51'0 0.1
2017-May-27 17:00N 47°36' W 002°51'0 0.0
2017-May-27 16:30N 47°36' W 002°51'0 0.0
2017-May-27 15:57N 47°36' W 002°51'0 0.0
2017-May-27 15:27N 47°36' W 002°51'0 0.0
2017-May-27 14:57N 47°36' W 002°51'0 1.0
2017-May-27 14:30N 47°36' W 002°51'5 5.0
2017-May-27 13:30N 47°32' W 002°55'1 2.9
2017-May-27 13:00N 47°31' W 002°56'1 1.3
2017-May-27 12:30N 47°31' W 002°57'1 1.4
2017-May-27 12:00N 47°31' W 002°58'1 1.5
2017-May-27 11:30N 47°31' W 002°59'1 2.4
2017-May-27 11:00N 47°31' W 003°01'0 1.0
2017-May-27 10:30N 47°31' W 002°60'1 2.8
2017-May-27 10:00N 47°31' W 002°58'2 3.4
2017-May-27 09:30N 47°32' W 002°56'4 7.9
2017-May-27 09:00N 47°35' W 002°52'1 2.7
2017-May-27 08:28N 47°36' W 002°51'0 0.0
2017-May-27 07:58N 47°36' W 002°51'0 0.0
2017-May-27 07:28N 47°36' W 002°51'0 0.1
2017-May-27 06:58N 47°36' W 002°51'0 0.0
2017-May-27 06:28N 47°36' W 002°51'0 0.0
2017-May-27 05:58N 47°36' W 002°51'0 0.0
2017-May-27 05:28N 47°36' W 002°51'0 0.0
2017-May-27 04:58N 47°36' W 002°51'0 0.0
2017-May-27 04:28N 47°36' W 002°51'0 0.0
2017-May-27 03:58N 47°36' W 002°51'0 0.0
2017-May-27 03:28N 47°36' W 002°51'0 0.0
2017-May-27 02:58N 47°36' W 002°51'0 0.0
2017-May-27 02:28N 47°36' W 002°51'0 0.0
2017-May-27 01:58N 47°36' W 002°51'0 0.0
2017-May-27 01:28N 47°36' W 002°51'0 0.0
2017-May-27 00:58N 47°36' W 002°51'0 0.1
2017-May-27 00:28N 47°36' W 002°51'0 0.0
2017-May-26 23:58N 47°36' W 002°51'0 0.0
2017-May-26 23:25N 47°36' W 002°51'0 0.0
2017-May-26 22:55N 47°36' W 002°51'0 0.0
2017-May-26 22:28N 47°36' W 002°51'0 0.0
2017-May-26 22:00N 47°36' W 002°51'0 0.0
2017-May-26 21:28N 47°36' W 002°51'0 0.0
2017-May-26 20:58N 47°36' W 002°51'0 0.0
2017-May-26 20:28N 47°36' W 002°51'0 0.0
2017-May-26 19:58N 47°36' W 002°51'0 0.0
2017-May-26 19:28N 47°36' W 002°51'0 0.0
2017-May-26 18:58N 47°36' W 002°51'0 0.0
2017-May-26 18:28N 47°36' W 002°51'0 0.0
2017-May-26 17:58N 47°36' W 002°51'0 0.0
2017-May-26 17:28N 47°36' W 002°51'0 0.1
2017-May-26 16:58N 47°36' W 002°51'0 0.0
2017-May-26 16:28N 47°36' W 002°51'0 0.1
2017-May-26 15:58N 47°36' W 002°51'0 0.0
2017-May-26 15:28N 47°36' W 002°51'0 0.0
2017-May-26 14:58N 47°36' W 002°51'0 0.4
2017-May-26 14:30N 47°36' W 002°51'5 4.9
2017-May-26 13:31N 47°32' W 002°55'2 3.2
2017-May-26 13:01N 47°31' W 002°55'1 3.0
2017-May-26 12:31N 47°29' W 002°55'2 3.1
2017-May-26 12:01N 47°28' W 002°56'1 2.5
2017-May-26 11:31N 47°29' W 002°56'2 4.2
2017-May-26 11:01N 47°31' W 002°55'2 4.8
2017-May-26 10:31N 47°34' W 002°55'3 5.2
2017-May-26 10:00N 47°35' W 002°52'2 3.1
2017-May-26 09:31N 47°36' W 002°51'0 0.0
2017-May-26 08:58N 47°36' W 002°51'0 0.0
2017-May-26 08:28N 47°36' W 002°51'0 0.0
2017-May-26 07:58N 47°36' W 002°51'0 0.0
2017-May-26 07:28N 47°36' W 002°51'0 0.0
2017-May-26 06:58N 47°36' W 002°51'0 0.0
2017-May-26 06:28N 47°36' W 002°51'0 0.0
2017-May-26 05:58N 47°36' W 002°51'0 0.0
2017-May-26 05:28N 47°36' W 002°51'0 0.0
2017-May-26 04:58N 47°36' W 002°51'0 0.0
2017-May-26 04:30N 47°36' W 002°51'0 0.0
2017-May-26 03:58N 47°36' W 002°51'0 0.0
2017-May-26 03:28N 47°36' W 002°51'0 0.0
2017-May-26 02:58N 47°36' W 002°51'0 0.0
2017-May-26 02:28N 47°36' W 002°51'0 0.0
2017-May-26 01:58N 47°36' W 002°51'0 0.0
2017-May-26 01:28N 47°36' W 002°51'0 0.0
2017-May-26 00:58N 47°36' W 002°51'0 0.0
2017-May-26 00:28N 47°36' W 002°51'0 0.1
2017-May-25 23:58N 47°36' W 002°51'0 0.0
2017-May-25 23:28N 47°36' W 002°51'0 0.0
2017-May-25 22:58N 47°36' W 002°51'0 0.0
2017-May-25 22:28N 47°36' W 002°51'0 0.0
2017-May-25 21:58N 47°36' W 002°51'0 0.0
2017-May-25 21:28N 47°36' W 002°51'0 0.0
2017-May-25 20:58N 47°36' W 002°51'0 0.0
2017-May-25 20:28N 47°36' W 002°51'0 0.0
2017-May-25 20:00N 47°36' W 002°51'0 0.0
2017-May-25 19:30N 47°36' W 002°51'0 0.0
2017-May-25 19:00N 47°36' W 002°51'0 0.0
2017-May-25 18:28N 47°36' W 002°51'0 0.0
2017-May-25 17:58N 47°36' W 002°51'0 0.0
2017-May-25 17:28N 47°36' W 002°51'0 0.0
2017-May-25 16:58N 47°36' W 002°51'0 0.0
2017-May-25 16:28N 47°36' W 002°51'0 0.0
2017-May-25 15:58N 47°36' W 002°51'0 0.0
2017-May-25 15:28N 47°36' W 002°51'0 0.0
2017-May-25 14:58N 47°36' W 002°51'1 1.5
2017-May-25 14:30N 47°36' W 002°51'5 5.4
2017-May-25 13:30N 47°31' W 002°55'3 5.2
2017-May-25 13:00N 47°29' W 002°56'3 6.4
2017-May-25 12:30N 47°26' W 002°57'2 3.6
2017-May-25 12:00N 47°24' W 002°57'2 4.3
2017-May-25 11:30N 47°25' W 002°55'2 4.5
2017-May-25 11:01N 47°27' W 002°54'3 6.5
2017-May-25 10:30N 47°31' W 002°54'3 6.7
2017-May-25 10:00N 47°34' W 002°54'3 6.5
2017-May-25 09:31N 47°36' W 002°51'0 0.5
2017-May-25 09:00N 47°36' W 002°51'0 0.0
2017-May-25 08:30N 47°36' W 002°51'0 0.0
2017-May-25 08:00N 47°36' W 002°51'0 0.0
2017-May-25 07:30N 47°36' W 002°51'0 0.0
2017-May-25 07:00N 47°36' W 002°51'0 0.0
2017-May-25 06:30N 47°36' W 002°51'0 0.0
2017-May-25 06:00N 47°36' W 002°51'0 0.0
2017-May-25 05:30N 47°36' W 002°51'0 0.0
2017-May-25 05:00N 47°36' W 002°51'0 0.0
2017-May-25 04:30N 47°36' W 002°51'0 0.0
2017-May-25 04:00N 47°36' W 002°51'0 0.0
2017-May-25 03:30N 47°36' W 002°51'0 0.0
2017-May-25 03:00N 47°36' W 002°51'0 0.0
2017-May-25 02:30N 47°36' W 002°51'0 0.0
2017-May-25 02:00N 47°36' W 002°51'0 0.0
2017-May-25 01:30N 47°36' W 002°51'0 0.0
2017-May-25 01:00N 47°36' W 002°51'0 0.0
2017-May-25 00:30N 47°36' W 002°51'0 0.1
2017-May-25 00:00N 47°36' W 002°51'0 0.1
2017-May-24 23:30N 47°36' W 002°51'0 0.0
2017-May-24 23:00N 47°36' W 002°51'0 0.0
2017-May-24 22:30N 47°36' W 002°51'0 0.0
2017-May-24 22:00N 47°36' W 002°51'0 0.0
2017-May-24 21:30N 47°36' W 002°51'0 0.0
2017-May-24 21:00N 47°36' W 002°51'0 0.0
2017-May-24 20:30N 47°36' W 002°51'0 0.0
2017-May-24 20:00N 47°36' W 002°51'0 0.0
2017-May-24 19:30N 47°36' W 002°51'0 0.0
2017-May-24 19:00N 47°36' W 002°51'0 0.0
2017-May-24 18:30N 47°36' W 002°51'0 0.0
2017-May-24 18:00N 47°36' W 002°51'0 0.0
2017-May-24 17:30N 47°36' W 002°51'0 0.0
2017-May-24 17:00N 47°36' W 002°51'0 0.0
2017-May-24 16:30N 47°36' W 002°51'0 0.0
2017-May-24 16:00N 47°36' W 002°51'0 0.1
2017-May-24 15:30N 47°36' W 002°51'0 0.0
2017-May-24 15:00N 47°36' W 002°51'2 3.5
2017-May-24 14:30N 47°35' W 002°52'4 3.8
2017-May-24 13:30N 47°32' W 002°55'2 3.2
2017-May-24 13:00N 47°30' W 002°55'0 0.9
2017-May-24 12:30N 47°30' W 002°55'0 0.6
2017-May-24 12:00N 47°30' W 002°55'1 3.0
2017-May-24 11:31N 47°31' W 002°54'2 3.7
2017-May-24 11:00N 47°33' W 002°55'1 2.3
2017-May-24 10:30N 47°34' W 002°55'2 3.9
2017-May-24 10:00N 47°35' W 002°53'2 3.7
2017-May-24 09:30N 47°36' W 002°51'0 0.4
2017-May-24 08:58N 47°36' W 002°51'0 0.0
2017-May-24 08:28N 47°36' W 002°51'0 0.0
2017-May-24 07:58N 47°36' W 002°51'0 0.0
2017-May-24 07:28N 47°36' W 002°51'0 0.0
2017-May-24 06:58N 47°36' W 002°51'0 0.0
2017-May-24 06:28N 47°36' W 002°51'0 0.0
2017-May-24 05:58N 47°36' W 002°51'0 0.0
2017-May-24 05:28N 47°36' W 002°51'0 0.0
2017-May-24 04:58N 47°36' W 002°51'0 0.0
2017-May-24 04:28N 47°36' W 002°51'0 0.0
2017-May-24 03:58N 47°36' W 002°51'0 0.0
2017-May-24 03:28N 47°36' W 002°51'0 0.0
2017-May-24 02:58N 47°36' W 002°51'0 0.0
2017-May-24 02:28N 47°36' W 002°51'0 0.0
2017-May-24 01:58N 47°36' W 002°51'0 0.0
2017-May-24 01:28N 47°36' W 002°51'0 0.0
2017-May-24 00:58N 47°36' W 002°51'0 0.0
2017-May-24 00:28N 47°36' W 002°51'0 0.1
2017-May-23 23:58N 47°36' W 002°51'0 0.0
2017-May-23 23:28N 47°36' W 002°51'0 0.0
2017-May-23 22:58N 47°36' W 002°51'0 0.1
2017-May-23 22:28N 47°36' W 002°51'0 0.0
2017-May-23 21:58N 47°36' W 002°51'0 0.0
2017-May-23 21:28N 47°36' W 002°51'0 0.0
2017-May-23 20:58N 47°36' W 002°51'0 0.0
2017-May-23 20:28N 47°36' W 002°51'0 0.0
2017-May-23 19:58N 47°36' W 002°51'0 0.0
2017-May-23 19:28N 47°36' W 002°51'0 0.0
2017-May-23 18:58N 47°36' W 002°51'0 0.0
2017-May-23 18:28N 47°36' W 002°51'0 0.0
2017-May-23 17:58N 47°36' W 002°51'0 0.0
2017-May-23 17:28N 47°36' W 002°51'0 0.0
2017-May-23 16:58N 47°36' W 002°51'0 0.1
2017-May-23 16:28N 47°36' W 002°51'0 0.0
2017-May-23 15:58N 47°36' W 002°51'0 0.1
2017-May-23 15:28N 47°36' W 002°51'0 0.0
2017-May-23 14:58N 47°36' W 002°51'0 0.0
2017-May-23 13:58N 47°36' W 002°51'0 0.0
2017-May-23 13:30N 47°36' W 002°51'1 1.4
2017-May-23 13:00N 47°36' W 002°50'1 2.0
2017-May-23 12:30N 47°37' W 002°49'2 4.1
2017-May-23 12:00N 47°36' W 002°51'3 5.6
2017-May-23 11:31N 47°34' W 002°54'3 6.9
2017-May-23 11:00N 47°31' W 002°56'2 4.6
2017-May-23 10:30N 47°28' W 002°56'1 1.9
2017-May-23 10:00N 47°28' W 002°56'2 4.7
2017-May-23 09:30N 47°30' W 002°55'2 3.7
2017-May-23 09:00N 47°32' W 002°55'2 3.9
2017-May-23 08:30N 47°34' W 002°55'4 7.0
2017-May-23 08:00N 47°36' W 002°51'0 0.8
2017-May-23 07:28N 47°36' W 002°51'0 0.0
2017-May-23 06:58N 47°36' W 002°51'0 0.0
2017-May-23 06:28N 47°36' W 002°51'0 0.0
2017-May-23 05:58N 47°36' W 002°51'0 0.0
2017-May-23 05:28N 47°36' W 002°51'0 0.0
2017-May-23 04:58N 47°36' W 002°51'0 0.0
2017-May-23 04:28N 47°36' W 002°51'0 0.0
2017-May-23 03:58N 47°36' W 002°51'0 0.0
2017-May-23 03:28N 47°36' W 002°51'0 0.0
2017-May-23 02:58N 47°36' W 002°51'0 0.0
2017-May-23 02:28N 47°36' W 002°51'0 0.0
2017-May-23 01:58N 47°36' W 002°51'0 0.0
2017-May-23 01:28N 47°36' W 002°51'0 0.0
2017-May-23 00:58N 47°36' W 002°51'0 0.0
2017-May-23 00:28N 47°36' W 002°51'0 0.0
2017-May-22 23:58N 47°36' W 002°51'0 0.0
2017-May-22 23:28N 47°36' W 002°51'0 0.0
2017-May-22 22:55N 47°36' W 002°51'0 0.0
2017-May-22 22:28N 47°36' W 002°51'0 0.0
2017-May-22 21:58N 47°36' W 002°51'0 0.1
2017-May-22 21:28N 47°36' W 002°51'0 0.0
2017-May-22 20:58N 47°36' W 002°51'0 0.0
2017-May-22 20:28N 47°36' W 002°51'0 0.0
2017-May-22 19:58N 47°36' W 002°51'0 0.0
2017-May-22 19:28N 47°36' W 002°51'0 0.0
2017-May-22 18:58N 47°36' W 002°51'0 0.0
2017-May-22 18:28N 47°36' W 002°51'0 0.0
2017-May-22 17:58N 47°36' W 002°51'0 0.0
2017-May-22 17:28N 47°36' W 002°51'0 0.0
2017-May-22 16:58N 47°36' W 002°51'0 0.0
2017-May-22 16:28N 47°36' W 002°51'0 0.0
2017-May-22 15:58N 47°36' W 002°51'0 0.0
2017-May-22 15:28N 47°36' W 002°51'0 0.0
2017-May-22 14:58N 47°36' W 002°51'0 0.0
2017-May-22 13:58N 47°36' W 002°51'0 0.0
2017-May-22 13:30N 47°36' W 002°51'2 4.0
2017-May-22 13:00N 47°35' W 002°53'3 5.1
2017-May-22 12:30N 47°33' W 002°55'2 3.5
2017-May-22 12:00N 47°31' W 002°56'1 1.6
2017-May-22 11:30N 47°31' W 002°58'1 2.2
2017-May-22 11:00N 47°31' W 002°56'2 3.1
2017-May-22 10:30N 47°33' W 002°55'2 4.8
2017-May-22 10:00N 47°35' W 002°53'2 4.4
2017-May-22 09:30N 47°36' W 002°51'0 0.1
2017-May-22 08:58N 47°36' W 002°51'0 0.0
2017-May-22 08:28N 47°36' W 002°51'0 0.0
2017-May-22 07:58N 47°36' W 002°51'0 0.0
2017-May-22 07:28N 47°36' W 002°51'0 0.0
2017-May-22 06:58N 47°36' W 002°51'0 0.0
2017-May-22 06:28N 47°36' W 002°51'0 0.0
2017-May-22 05:58N 47°36' W 002°51'0 0.0
2017-May-22 05:28N 47°36' W 002°51'0 0.0
2017-May-22 04:58N 47°36' W 002°51'0 0.0
2017-May-22 04:28N 47°36' W 002°51'0 0.0
2017-May-22 03:58N 47°36' W 002°51'0 0.0
2017-May-22 03:28N 47°36' W 002°51'0 0.0
2017-May-22 02:58N 47°36' W 002°51'0 0.0
2017-May-22 02:28N 47°36' W 002°51'0 0.0
2017-May-22 02:00N 47°36' W 002°51'0 0.0
2017-May-22 01:28N 47°36' W 002°51'0 0.0
2017-May-22 00:58N 47°36' W 002°51'0 0.0
2017-May-22 00:28N 47°36' W 002°51'0 0.0
2017-May-21 23:58N 47°36' W 002°51'0 0.0
2017-May-21 23:28N 47°36' W 002°51'0 0.0
2017-May-21 22:58N 47°36' W 002°51'0 0.0
2017-May-21 22:28N 47°36' W 002°51'0 0.1
2017-May-21 21:58N 47°36' W 002°51'0 0.0
2017-May-21 21:28N 47°36' W 002°51'0 0.0
2017-May-21 20:58N 47°36' W 002°51'0 0.0
2017-May-21 20:28N 47°36' W 002°51'0 0.0
2017-May-21 19:58N 47°36' W 002°51'0 0.0
2017-May-21 19:28N 47°36' W 002°51'0 0.0
2017-May-21 18:58N 47°36' W 002°51'0 0.0
2017-May-21 18:28N 47°36' W 002°51'0 0.0
2017-May-21 17:58N 47°36' W 002°51'0 0.0
2017-May-21 17:28N 47°36' W 002°51'0 0.0
2017-May-21 17:00N 47°36' W 002°51'0 0.0
2017-May-21 16:28N 47°36' W 002°51'0 0.0
2017-May-21 15:58N 47°36' W 002°51'0 0.0
2017-May-21 15:28N 47°36' W 002°51'0 0.0
2017-May-21 14:58N 47°36' W 002°51'0 0.0
2017-May-21 14:28N 47°36' W 002°51'0 0.0
2017-May-21 13:28N 47°36' W 002°51'0 0.0
2017-May-21 13:00N 47°36' W 002°51'2 4.8
2017-May-21 12:30N 47°35' W 002°53'3 5.8
2017-May-21 12:00N 47°32' W 002°55'3 5.8
2017-May-21 11:30N 47°30' W 002°58'2 4.8
2017-May-21 11:00N 47°28' W 003°00'3 5.2
2017-May-21 10:30N 47°26' W 003°03'3 5.6
2017-May-21 10:00N 47°24' W 003°06'3 5.7
2017-May-21 09:30N 47°22' W 003°08'1 1.4
2017-May-21 08:54N 47°21' W 003°09'0 0.0
2017-May-21 08:30N 47°21' W 003°09'0 0.0
2017-May-21 07:42N 47°21' W 003°09'0 0.0
2017-May-21 07:30N 47°21' W 003°09'0 0.0
2017-May-21 06:48N 47°21' W 003°09'0 0.0
2017-May-21 06:27N 47°21' W 003°09'0 0.0
2017-May-21 06:00N 47°21' W 003°09'0 0.0
2017-May-21 05:24N 47°21' W 003°09'0 0.0
2017-May-21 05:00N 47°21' W 003°09'0 0.0
2017-May-21 04:30N 47°21' W 003°09'0 0.0
2017-May-21 04:00N 47°21' W 003°09'0 0.0
2017-May-21 03:30N 47°21' W 003°09'0 0.0
2017-May-21 02:54N 47°21' W 003°09'0 0.0
2017-May-21 02:30N 47°21' W 003°09'0 0.0
2017-May-21 02:00N 47°21' W 003°09'0 0.0
2017-May-21 01:30N 47°21' W 003°09'0 0.0
2017-May-21 01:00N 47°21' W 003°09'0 0.0
2017-May-21 00:27N 47°21' W 003°09'0 0.0
2017-May-21 00:00N 47°21' W 003°09'0 0.0
2017-May-20 23:30N 47°21' W 003°09'0 0.0
2017-May-20 22:57N 47°21' W 003°09'0 0.0
2017-May-20 22:24N 47°21' W 003°09'0 0.0
2017-May-20 21:48N 47°21' W 003°09'0 0.0
2017-May-20 21:30N 47°21' W 003°09'0 0.0
2017-May-20 21:00N 47°21' W 003°09'0 0.0
2017-May-20 20:27N 47°21' W 003°09'0 0.0
2017-May-20 18:42N 47°21' W 003°09'0 0.0
2017-May-20 18:09N 47°21' W 003°09'0 0.0
2017-May-20 18:00N 47°21' W 003°09'0 0.0
2017-May-20 17:30N 47°21' W 003°09'0 0.0
2017-May-20 17:00N 47°21' W 003°09'0 0.0
2017-May-20 16:30N 47°21' W 003°09'0 0.0
2017-May-20 16:00N 47°21' W 003°09'0 0.2
2017-May-20 15:31N 47°21' W 003°09'0 0.9
2017-May-20 15:00N 47°22' W 003°09'5 3.7
2017-May-20 13:35N 47°25' W 003°16'1 7.1
2017-May-20 13:27N 47°25' W 003°17'3 6.9
2017-May-20 13:01N 47°27' W 003°20'4 7.3
2017-May-20 12:31N 47°29' W 003°25'3 5.7
2017-May-20 12:00N 47°30' W 003°29'3 5.6
2017-May-20 11:30N 47°32' W 003°32'3 6.3
2017-May-20 11:01N 47°34' W 003°35'4 7.2
2017-May-20 10:29N 47°37' W 003°39'3 6.5
2017-May-20 10:00N 47°39' W 003°43'24 0.9
2017-May-19 06:38N 47°42' W 004°18'  

Dump ship's entire track history